sensor_id;sensor_type;location;lat;lon;timestamp;temperature;humidity
4399;DHT22;2213;49.720;7.296;2024-02-28T00:00:37;5.90;99.90
4399;DHT22;2213;49.720;7.296;2024-02-28T00:03:05;5.90;99.90
4399;DHT22;2213;49.720;7.296;2024-02-28T00:05:34;5.90;99.90
4399;DHT22;2213;49.720;7.296;2024-02-28T00:08:03;5.80;99.90
4399;DHT22;2213;49.720;7.296;2024-02-28T00:10:32;5.70;99.90
4399;DHT22;2213;49.720;7.296;2024-02-28T00:13:00;5.60;99.90
4399;DHT22;2213;49.720;7.296;2024-02-28T00:15:29;5.60;99.90
4399;DHT22;2213;49.720;7.296;2024-02-28T00:17:59;5.60;99.90
4399;DHT22;2213;49.720;7.296;2024-02-28T00:20:28;5.60;99.90
4399;DHT22;2213;49.720;7.296;2024-02-28T00:22:56;5.50;99.90
4399;DHT22;2213;49.720;7.296;2024-02-28T00:25:24;5.40;99.90
4399;DHT22;2213;49.720;7.296;2024-02-28T00:27:53;5.60;99.90
4399;DHT22;2213;49.720;7.296;2024-02-28T00:30:21;5.50;99.90
4399;DHT22;2213;49.720;7.296;2024-02-28T00:32:50;5.50;99.90
4399;DHT22;2213;49.720;7.296;2024-02-28T00:35:20;5.50;99.90
4399;DHT22;2213;49.720;7.296;2024-02-28T00:37:48;5.50;99.90
4399;DHT22;2213;49.720;7.296;2024-02-28T00:40:16;5.50;99.90
4399;DHT22;2213;49.720;7.296;2024-02-28T00:42:45;5.40;99.90
4399;DHT22;2213;49.720;7.296;2024-02-28T00:45:13;5.50;99.90
4399;DHT22;2213;49.720;7.296;2024-02-28T00:47:42;5.40;99.90
4399;DHT22;2213;49.720;7.296;2024-02-28T00:50:11;5.40;99.90
4399;DHT22;2213;49.720;7.296;2024-02-28T00:52:40;5.30;99.90
4399;DHT22;2213;49.720;7.296;2024-02-28T00:55:09;5.40;99.90
4399;DHT22;2213;49.720;7.296;2024-02-28T00:57:37;5.30;99.90
4399;DHT22;2213;49.720;7.296;2024-02-28T01:00:07;5.30;99.90
4399;DHT22;2213;49.720;7.296;2024-02-28T01:02:37;5.30;99.90
4399;DHT22;2213;49.720;7.296;2024-02-28T01:05:06;5.40;99.90
4399;DHT22;2213;49.720;7.296;2024-02-28T01:07:35;5.40;99.90
4399;DHT22;2213;49.720;7.296;2024-02-28T01:10:06;5.30;99.90
4399;DHT22;2213;49.720;7.296;2024-02-28T01:12:35;5.40;99.90
4399;DHT22;2213;49.720;7.296;2024-02-28T01:15:04;5.50;99.90
4399;DHT22;2213;49.720;7.296;2024-02-28T01:17:33;5.50;99.90
4399;DHT22;2213;49.720;7.296;2024-02-28T01:20:02;5.50;99.90
4399;DHT22;2213;49.720;7.296;2024-02-28T01:22:30;5.50;99.90
4399;DHT22;2213;49.720;7.296;2024-02-28T01:24:59;5.50;99.90
4399;DHT22;2213;49.720;7.296;2024-02-28T01:27:29;5.40;99.90
4399;DHT22;2213;49.720;7.296;2024-02-28T01:29:57;5.40;99.90
4399;DHT22;2213;49.720;7.296;2024-02-28T01:32:26;5.50;99.90
4399;DHT22;2213;49.720;7.296;2024-02-28T01:34:54;5.20;99.90
4399;DHT22;2213;49.720;7.296;2024-02-28T01:37:23;5.20;99.90
4399;DHT22;2213;49.720;7.296;2024-02-28T01:39:52;5.30;99.90
4399;DHT22;2213;49.720;7.296;2024-02-28T01:42:20;5.30;99.90
4399;DHT22;2213;49.720;7.296;2024-02-28T01:44:50;5.30;99.90
4399;DHT22;2213;49.720;7.296;2024-02-28T01:47:19;5.30;99.90
4399;DHT22;2213;49.720;7.296;2024-02-28T01:49:47;5.30;99.90
4399;DHT22;2213;49.720;7.296;2024-02-28T01:52:18;5.40;99.90
4399;DHT22;2213;49.720;7.296;2024-02-28T01:54:46;5.40;99.90
4399;DHT22;2213;49.720;7.296;2024-02-28T01:57:15;5.40;99.90
4399;DHT22;2213;49.720;7.296;2024-02-28T01:59:44;5.30;99.90
4399;DHT22;2213;49.720;7.296;2024-02-28T02:02:15;5.30;99.90
4399;DHT22;2213;49.720;7.296;2024-02-28T02:04:44;5.40;99.90
4399;DHT22;2213;49.720;7.296;2024-02-28T02:07:12;5.30;99.90
4399;DHT22;2213;49.720;7.296;2024-02-28T02:09:41;5.30;99.90
4399;DHT22;2213;49.720;7.296;2024-02-28T02:12:10;5.40;99.90
4399;DHT22;2213;49.720;7.296;2024-02-28T02:14:39;5.20;99.90
4399;DHT22;2213;49.720;7.296;2024-02-28T02:17:07;5.40;99.90
4399;DHT22;2213;49.720;7.296;2024-02-28T02:19:37;5.40;99.90
4399;DHT22;2213;49.720;7.296;2024-02-28T02:22:08;5.30;99.90
4399;DHT22;2213;49.720;7.296;2024-02-28T02:24:38;5.30;99.90
4399;DHT22;2213;49.720;7.296;2024-02-28T02:27:06;5.30;99.90
4399;DHT22;2213;49.720;7.296;2024-02-28T02:29:35;5.30;99.90
4399;DHT22;2213;49.720;7.296;2024-02-28T02:32:03;5.20;99.90
4399;DHT22;2213;49.720;7.296;2024-02-28T02:34:32;5.10;99.90
4399;DHT22;2213;49.720;7.296;2024-02-28T02:37:01;5.20;99.90
4399;DHT22;2213;49.720;7.296;2024-02-28T02:39:29;5.20;99.90
4399;DHT22;2213;49.720;7.296;2024-02-28T02:41:59;5.20;99.90
4399;DHT22;2213;49.720;7.296;2024-02-28T02:44:27;5.00;99.90
4399;DHT22;2213;49.720;7.296;2024-02-28T02:46:56;5.00;99.90
4399;DHT22;2213;49.720;7.296;2024-02-28T02:49:24;5.00;99.90
4399;DHT22;2213;49.720;7.296;2024-02-28T02:51:53;5.00;99.90
4399;DHT22;2213;49.720;7.296;2024-02-28T02:54:21;5.10;99.90
4399;DHT22;2213;49.720;7.296;2024-02-28T02:56:49;5.00;99.90
4399;DHT22;2213;49.720;7.296;2024-02-28T02:59:19;4.80;99.90
4399;DHT22;2213;49.720;7.296;2024-02-28T03:01:49;4.80;99.90
4399;DHT22;2213;49.720;7.296;2024-02-28T03:04:18;4.80;99.90
4399;DHT22;2213;49.720;7.296;2024-02-28T03:06:46;4.90;99.90
4399;DHT22;2213;49.720;7.296;2024-02-28T03:09:15;4.90;99.90
4399;DHT22;2213;49.720;7.296;2024-02-28T03:11:43;4.80;99.90
4399;DHT22;2213;49.720;7.296;2024-02-28T03:14:12;4.80;99.90
4399;DHT22;2213;49.720;7.296;2024-02-28T03:16:42;4.70;99.90
4399;DHT22;2213;49.720;7.296;2024-02-28T03:19:11;4.80;99.90
4399;DHT22;2213;49.720;7.296;2024-02-28T03:21:40;4.60;99.90
4399;DHT22;2213;49.720;7.296;2024-02-28T03:24:08;4.60;99.90
4399;DHT22;2213;49.720;7.296;2024-02-28T03:26:37;4.70;99.90
4399;DHT22;2213;49.720;7.296;2024-02-28T03:29:05;4.70;99.90
4399;DHT22;2213;49.720;7.296;2024-02-28T03:31:34;4.60;99.90
4399;DHT22;2213;49.720;7.296;2024-02-28T03:34:04;4.70;99.90
4399;DHT22;2213;49.720;7.296;2024-02-28T03:36:32;4.70;99.90
4399;DHT22;2213;49.720;7.296;2024-02-28T03:39:01;4.70;99.90
4399;DHT22;2213;49.720;7.296;2024-02-28T03:41:29;4.60;99.90
4399;DHT22;2213;49.720;7.296;2024-02-28T03:43:57;4.50;99.90
4399;DHT22;2213;49.720;7.296;2024-02-28T03:46:26;4.50;99.90
4399;DHT22;2213;49.720;7.296;2024-02-28T03:48:54;4.60;99.90
4399;DHT22;2213;49.720;7.296;2024-02-28T03:51:24;4.50;99.90
4399;DHT22;2213;49.720;7.296;2024-02-28T03:53:52;4.50;99.90
4399;DHT22;2213;49.720;7.296;2024-02-28T03:56:22;4.30;99.90
4399;DHT22;2213;49.720;7.296;2024-02-28T03:58:52;4.50;99.90
4399;DHT22;2213;49.720;7.296;2024-02-28T04:01:21;4.40;99.90
4399;DHT22;2213;49.720;7.296;2024-02-28T04:03:49;4.40;99.90
4399;DHT22;2213;49.720;7.296;2024-02-28T04:06:18;4.40;99.90
4399;DHT22;2213;49.720;7.296;2024-02-28T04:08:48;4.50;99.90
4399;DHT22;2213;49.720;7.296;2024-02-28T04:11:16;4.50;99.90
4399;DHT22;2213;49.720;7.296;2024-02-28T04:13:45;4.50;99.90
4399;DHT22;2213;49.720;7.296;2024-02-28T04:16:13;4.50;99.90
4399;DHT22;2213;49.720;7.296;2024-02-28T04:18:42;4.40;99.90
4399;DHT22;2213;49.720;7.296;2024-02-28T04:21:10;4.30;99.90
4399;DHT22;2213;49.720;7.296;2024-02-28T04:23:39;4.30;99.90
4399;DHT22;2213;49.720;7.296;2024-02-28T04:26:10;4.30;99.90
4399;DHT22;2213;49.720;7.296;2024-02-28T04:28:39;4.30;99.90
4399;DHT22;2213;49.720;7.296;2024-02-28T04:31:09;4.30;99.90
4399;DHT22;2213;49.720;7.296;2024-02-28T04:33:37;4.30;99.90
4399;DHT22;2213;49.720;7.296;2024-02-28T04:36:06;4.30;99.90
4399;DHT22;2213;49.720;7.296;2024-02-28T04:38:34;4.20;99.90
4399;DHT22;2213;49.720;7.296;2024-02-28T04:41:03;4.20;99.90
4399;DHT22;2213;49.720;7.296;2024-02-28T04:43:33;4.20;99.90
4399;DHT22;2213;49.720;7.296;2024-02-28T04:46:02;4.00;99.90
4399;DHT22;2213;49.720;7.296;2024-02-28T04:48:31;4.00;99.90
4399;DHT22;2213;49.720;7.296;2024-02-28T04:51:00;3.90;99.90
4399;DHT22;2213;49.720;7.296;2024-02-28T04:53:29;3.90;99.90
4399;DHT22;2213;49.720;7.296;2024-02-28T04:55:57;4.00;99.90
4399;DHT22;2213;49.720;7.296;2024-02-28T04:58:26;3.90;99.90
4399;DHT22;2213;49.720;7.296;2024-02-28T05:00:56;3.90;99.90
4399;DHT22;2213;49.720;7.296;2024-02-28T05:03:24;3.90;99.90
4399;DHT22;2213;49.720;7.296;2024-02-28T05:05:53;3.90;99.90
4399;DHT22;2213;49.720;7.296;2024-02-28T05:08:21;3.90;99.90
4399;DHT22;2213;49.720;7.296;2024-02-28T05:10:50;3.90;99.90
4399;DHT22;2213;49.720;7.296;2024-02-28T05:13:19;3.90;99.90
4399;DHT22;2213;49.720;7.296;2024-02-28T05:15:49;4.00;99.90
4399;DHT22;2213;49.720;7.296;2024-02-28T05:18:19;3.90;99.90
4399;DHT22;2213;49.720;7.296;2024-02-28T05:20:47;3.90;99.90
4399;DHT22;2213;49.720;7.296;2024-02-28T05:23:16;3.90;99.90
4399;DHT22;2213;49.720;7.296;2024-02-28T05:25:46;3.80;99.90
4399;DHT22;2213;49.720;7.296;2024-02-28T05:28:14;3.90;99.90
4399;DHT22;2213;49.720;7.296;2024-02-28T05:30:43;4.00;99.90
4399;DHT22;2213;49.720;7.296;2024-02-28T05:33:15;4.00;99.90
4399;DHT22;2213;49.720;7.296;2024-02-28T05:35:46;3.90;99.90
4399;DHT22;2213;49.720;7.296;2024-02-28T05:38:14;3.90;99.90
4399;DHT22;2213;49.720;7.296;2024-02-28T05:40:43;3.80;99.90
4399;DHT22;2213;49.720;7.296;2024-02-28T05:43:11;3.80;99.90
4399;DHT22;2213;49.720;7.296;2024-02-28T05:45:40;3.70;99.90
4399;DHT22;2213;49.720;7.296;2024-02-28T05:48:08;3.80;99.90
4399;DHT22;2213;49.720;7.296;2024-02-28T05:50:37;3.80;99.90
4399;DHT22;2213;49.720;7.296;2024-02-28T05:53:07;3.70;99.90
4399;DHT22;2213;49.720;7.296;2024-02-28T05:55:35;3.60;99.90
4399;DHT22;2213;49.720;7.296;2024-02-28T05:58:04;3.70;99.90
4399;DHT22;2213;49.720;7.296;2024-02-28T06:00:34;3.80;99.90
4399;DHT22;2213;49.720;7.296;2024-02-28T06:03:03;3.80;99.90
4399;DHT22;2213;49.720;7.296;2024-02-28T06:05:32;3.70;99.90
4399;DHT22;2213;49.720;7.296;2024-02-28T06:08:00;3.60;99.90
4399;DHT22;2213;49.720;7.296;2024-02-28T06:10:30;3.70;99.90
4399;DHT22;2213;49.720;7.296;2024-02-28T06:12:59;3.60;99.90
4399;DHT22;2213;49.720;7.296;2024-02-28T06:15:27;3.70;99.90
4399;DHT22;2213;49.720;7.296;2024-02-28T06:17:56;3.50;99.90
4399;DHT22;2213;49.720;7.296;2024-02-28T06:20:27;3.60;99.90
4399;DHT22;2213;49.720;7.296;2024-02-28T06:22:55;3.50;99.90
4399;DHT22;2213;49.720;7.296;2024-02-28T06:25:25;3.50;99.90
4399;DHT22;2213;49.720;7.296;2024-02-28T06:27:56;3.50;99.90
4399;DHT22;2213;49.720;7.296;2024-02-28T06:30:24;3.50;99.90
4399;DHT22;2213;49.720;7.296;2024-02-28T06:32:53;3.50;99.90
4399;DHT22;2213;49.720;7.296;2024-02-28T06:35:21;3.50;99.90
4399;DHT22;2213;49.720;7.296;2024-02-28T06:37:50;3.40;99.90
4399;DHT22;2213;49.720;7.296;2024-02-28T06:40:19;3.40;99.90
4399;DHT22;2213;49.720;7.296;2024-02-28T06:42:48;3.20;99.90
4399;DHT22;2213;49.720;7.296;2024-02-28T06:45:18;3.40;99.90
4399;DHT22;2213;49.720;7.296;2024-02-28T06:47:46;3.20;99.90
4399;DHT22;2213;49.720;7.296;2024-02-28T06:50:15;3.30;99.90
4399;DHT22;2213;49.720;7.296;2024-02-28T06:52:43;3.10;99.90
4399;DHT22;2213;49.720;7.296;2024-02-28T06:55:12;3.00;99.90
4399;DHT22;2213;49.720;7.296;2024-02-28T06:57:42;2.90;99.90
4399;DHT22;2213;49.720;7.296;2024-02-28T07:00:11;2.90;99.90
4399;DHT22;2213;49.720;7.296;2024-02-28T07:02:43;3.00;99.90
4399;DHT22;2213;49.720;7.296;2024-02-28T07:05:12;3.10;99.90
4399;DHT22;2213;49.720;7.296;2024-02-28T07:07:40;3.00;99.90
4399;DHT22;2213;49.720;7.296;2024-02-28T07:10:09;3.10;99.90
4399;DHT22;2213;49.720;7.296;2024-02-28T07:12:38;3.10;99.90
4399;DHT22;2213;49.720;7.296;2024-02-28T07:15:07;3.20;99.90
4399;DHT22;2213;49.720;7.296;2024-02-28T07:17:36;3.20;99.90
4399;DHT22;2213;49.720;7.296;2024-02-28T07:20:07;3.10;99.90
4399;DHT22;2213;49.720;7.296;2024-02-28T07:22:35;3.20;99.90
4399;DHT22;2213;49.720;7.296;2024-02-28T07:25:05;3.10;99.90
4399;DHT22;2213;49.720;7.296;2024-02-28T07:27:35;3.10;99.90
4399;DHT22;2213;49.720;7.296;2024-02-28T07:30:04;3.10;99.90
4399;DHT22;2213;49.720;7.296;2024-02-28T07:32:33;3.10;99.90
4399;DHT22;2213;49.720;7.296;2024-02-28T07:35:06;3.00;99.90
4399;DHT22;2213;49.720;7.296;2024-02-28T07:37:35;2.90;99.90
4399;DHT22;2213;49.720;7.296;2024-02-28T07:40:05;2.90;99.90
4399;DHT22;2213;49.720;7.296;2024-02-28T07:42:35;3.00;99.90
4399;DHT22;2213;49.720;7.296;2024-02-28T07:45:04;3.10;99.90
4399;DHT22;2213;49.720;7.296;2024-02-28T07:47:35;3.10;99.90
4399;DHT22;2213;49.720;7.296;2024-02-28T07:50:07;3.10;99.90
4399;DHT22;2213;49.720;7.296;2024-02-28T07:52:35;3.10;99.90
4399;DHT22;2213;49.720;7.296;2024-02-28T07:55:05;3.10;99.90
4399;DHT22;2213;49.720;7.296;2024-02-28T07:57:34;3.20;99.90
4399;DHT22;2213;49.720;7.296;2024-02-28T08:00:03;3.20;99.90
4399;DHT22;2213;49.720;7.296;2024-02-28T08:02:33;3.30;99.90
4399;DHT22;2213;49.720;7.296;2024-02-28T08:05:02;3.30;99.90
4399;DHT22;2213;49.720;7.296;2024-02-28T08:07:32;3.30;99.90
4399;DHT22;2213;49.720;7.296;2024-02-28T08:10:00;3.30;99.90
4399;DHT22;2213;49.720;7.296;2024-02-28T08:12:29;3.30;99.90
4399;DHT22;2213;49.720;7.296;2024-02-28T08:14:57;3.30;99.90
4399;DHT22;2213;49.720;7.296;2024-02-28T08:17:26;3.20;99.90
4399;DHT22;2213;49.720;7.296;2024-02-28T08:19:55;3.20;99.90
4399;DHT22;2213;49.720;7.296;2024-02-28T08:22:23;3.30;99.90
4399;DHT22;2213;49.720;7.296;2024-02-28T08:24:54;3.30;99.90
4399;DHT22;2213;49.720;7.296;2024-02-28T08:27:22;3.40;99.90
4399;DHT22;2213;49.720;7.296;2024-02-28T08:29:51;3.50;99.90
4399;DHT22;2213;49.720;7.296;2024-02-28T08:32:19;3.40;99.90
4399;DHT22;2213;49.720;7.296;2024-02-28T08:34:48;3.50;99.90
4399;DHT22;2213;49.720;7.296;2024-02-28T08:37:16;3.50;99.90
4399;DHT22;2213;49.720;7.296;2024-02-28T08:39:45;3.40;99.90
4399;DHT22;2213;49.720;7.296;2024-02-28T08:42:15;3.40;99.90
4399;DHT22;2213;49.720;7.296;2024-02-28T08:44:43;3.50;99.90
4399;DHT22;2213;49.720;7.296;2024-02-28T08:47:15;3.50;99.90
4399;DHT22;2213;49.720;7.296;2024-02-28T08:49:43;3.40;99.90
4399;DHT22;2213;49.720;7.296;2024-02-28T08:52:11;3.50;99.90
4399;DHT22;2213;49.720;7.296;2024-02-28T08:54:40;3.40;99.90
4399;DHT22;2213;49.720;7.296;2024-02-28T08:57:08;3.60;99.90
4399;DHT22;2213;49.720;7.296;2024-02-28T08:59:38;3.50;99.90
4399;DHT22;2213;49.720;7.296;2024-02-28T09:02:08;3.50;99.90
4399;DHT22;2213;49.720;7.296;2024-02-28T09:04:38;3.60;99.90
4399;DHT22;2213;49.720;7.296;2024-02-28T09:07:06;3.60;99.90
4399;DHT22;2213;49.720;7.296;2024-02-28T09:09:35;3.70;99.90
4399;DHT22;2213;49.720;7.296;2024-02-28T09:12:05;3.60;99.90
4399;DHT22;2213;49.720;7.296;2024-02-28T09:14:34;3.70;99.90
4399;DHT22;2213;49.720;7.296;2024-02-28T09:17:04;3.70;99.90
4399;DHT22;2213;49.720;7.296;2024-02-28T09:19:33;3.70;99.90
4399;DHT22;2213;49.720;7.296;2024-02-28T09:22:01;3.70;99.90
4399;DHT22;2213;49.720;7.296;2024-02-28T09:24:30;3.80;99.90
4399;DHT22;2213;49.720;7.296;2024-02-28T09:26:59;3.60;99.90
4399;DHT22;2213;49.720;7.296;2024-02-28T09:29:27;3.70;99.90
4399;DHT22;2213;49.720;7.296;2024-02-28T09:31:56;3.80;99.90
4399;DHT22;2213;49.720;7.296;2024-02-28T09:34:26;4.00;99.90
4399;DHT22;2213;49.720;7.296;2024-02-28T09:36:54;4.00;99.90
4399;DHT22;2213;49.720;7.296;2024-02-28T09:39:23;3.90;99.90
4399;DHT22;2213;49.720;7.296;2024-02-28T09:41:52;4.00;99.90
4399;DHT22;2213;49.720;7.296;2024-02-28T09:44:21;4.00;99.90
4399;DHT22;2213;49.720;7.296;2024-02-28T09:46:52;4.00;99.90
4399;DHT22;2213;49.720;7.296;2024-02-28T09:49:22;4.10;99.90
4399;DHT22;2213;49.720;7.296;2024-02-28T09:51:57;4.10;99.90
4399;DHT22;2213;49.720;7.296;2024-02-28T09:54:27;4.20;99.90
4399;DHT22;2213;49.720;7.296;2024-02-28T09:56:56;4.30;99.90
4399;DHT22;2213;49.720;7.296;2024-02-28T09:59:25;4.40;99.90
4399;DHT22;2213;49.720;7.296;2024-02-28T10:02:10;4.40;99.90
4399;DHT22;2213;49.720;7.296;2024-02-28T10:04:40;4.50;99.90
4399;DHT22;2213;49.720;7.296;2024-02-28T10:07:13;4.60;99.90
4399;DHT22;2213;49.720;7.296;2024-02-28T10:09:42;4.60;99.90
4399;DHT22;2213;49.720;7.296;2024-02-28T10:12:11;4.70;99.90
4399;DHT22;2213;49.720;7.296;2024-02-28T10:14:39;4.80;99.90
4399;DHT22;2213;49.720;7.296;2024-02-28T10:17:08;4.70;99.90
4399;DHT22;2213;49.720;7.296;2024-02-28T10:19:36;4.80;99.90
4399;DHT22;2213;49.720;7.296;2024-02-28T10:22:06;4.90;99.90
4399;DHT22;2213;49.720;7.296;2024-02-28T10:24:36;5.00;99.90
4399;DHT22;2213;49.720;7.296;2024-02-28T10:27:05;5.00;99.90
4399;DHT22;2213;49.720;7.296;2024-02-28T10:29:34;5.00;99.90
4399;DHT22;2213;49.720;7.296;2024-02-28T10:32:04;5.10;99.90
4399;DHT22;2213;49.720;7.296;2024-02-28T10:34:33;5.20;99.90
4399;DHT22;2213;49.720;7.296;2024-02-28T10:37:04;5.20;99.90
4399;DHT22;2213;49.720;7.296;2024-02-28T10:39:35;5.30;99.90
4399;DHT22;2213;49.720;7.296;2024-02-28T10:42:06;5.40;99.90
4399;DHT22;2213;49.720;7.296;2024-02-28T10:44:37;5.40;99.90
4399;DHT22;2213;49.720;7.296;2024-02-28T10:47:08;5.50;99.90
4399;DHT22;2213;49.720;7.296;2024-02-28T10:49:42;5.60;99.90
4399;DHT22;2213;49.720;7.296;2024-02-28T10:52:12;5.60;99.90
4399;DHT22;2213;49.720;7.296;2024-02-28T10:54:46;5.80;99.90
4399;DHT22;2213;49.720;7.296;2024-02-28T10:57:22;5.80;99.90
4399;DHT22;2213;49.720;7.296;2024-02-28T10:59:54;5.90;99.90
4399;DHT22;2213;49.720;7.296;2024-02-28T11:02:24;6.00;99.90
4399;DHT22;2213;49.720;7.296;2024-02-28T11:04:54;6.00;99.90
4399;DHT22;2213;49.720;7.296;2024-02-28T11:07:24;6.20;99.90
4399;DHT22;2213;49.720;7.296;2024-02-28T11:09:55;6.20;99.90
4399;DHT22;2213;49.720;7.296;2024-02-28T11:12:27;6.30;99.90
4399;DHT22;2213;49.720;7.296;2024-02-28T11:15:00;6.40;99.90
4399;DHT22;2213;49.720;7.296;2024-02-28T11:17:30;6.50;99.90
4399;DHT22;2213;49.720;7.296;2024-02-28T11:19:59;6.50;99.90
4399;DHT22;2213;49.720;7.296;2024-02-28T11:22:28;6.50;99.90
4399;DHT22;2213;49.720;7.296;2024-02-28T11:24:58;6.60;99.90
4399;DHT22;2213;49.720;7.296;2024-02-28T11:27:27;6.70;99.90
4399;DHT22;2213;49.720;7.296;2024-02-28T11:29:55;6.80;99.90
4399;DHT22;2213;49.720;7.296;2024-02-28T11:32:24;6.90;99.90
4399;DHT22;2213;49.720;7.296;2024-02-28T11:34:53;7.00;99.90
4399;DHT22;2213;49.720;7.296;2024-02-28T11:37:21;7.00;99.90
4399;DHT22;2213;49.720;7.296;2024-02-28T11:39:50;7.00;99.90
4399;DHT22;2213;49.720;7.296;2024-02-28T11:42:20;7.10;99.90
4399;DHT22;2213;49.720;7.296;2024-02-28T11:44:53;7.20;99.90
4399;DHT22;2213;49.720;7.296;2024-02-28T11:47:28;7.20;99.90
4399;DHT22;2213;49.720;7.296;2024-02-28T11:49:58;7.40;99.90
4399;DHT22;2213;49.720;7.296;2024-02-28T11:52:27;7.40;99.90
4399;DHT22;2213;49.720;7.296;2024-02-28T11:54:56;7.60;99.90
4399;DHT22;2213;49.720;7.296;2024-02-28T11:57:27;7.50;99.90
4399;DHT22;2213;49.720;7.296;2024-02-28T11:59:56;7.60;99.90
4399;DHT22;2213;49.720;7.296;2024-02-28T12:02:25;7.60;99.90
4399;DHT22;2213;49.720;7.296;2024-02-28T12:04:59;7.70;99.90
4399;DHT22;2213;49.720;7.296;2024-02-28T12:07:29;7.80;99.90
4399;DHT22;2213;49.720;7.296;2024-02-28T12:09:58;7.90;99.90
4399;DHT22;2213;49.720;7.296;2024-02-28T12:12:28;7.80;99.90
4399;DHT22;2213;49.720;7.296;2024-02-28T12:15:00;7.80;99.90
4399;DHT22;2213;49.720;7.296;2024-02-28T12:17:30;8.00;99.90
4399;DHT22;2213;49.720;7.296;2024-02-28T12:19:59;8.00;99.90
4399;DHT22;2213;49.720;7.296;2024-02-28T12:22:28;7.90;99.90
4399;DHT22;2213;49.720;7.296;2024-02-28T12:24:56;8.00;99.90
4399;DHT22;2213;49.720;7.296;2024-02-28T12:27:29;8.10;99.90
4399;DHT22;2213;49.720;7.296;2024-02-28T12:29:58;8.10;99.90
4399;DHT22;2213;49.720;7.296;2024-02-28T12:32:26;8.10;99.90
4399;DHT22;2213;49.720;7.296;2024-02-28T12:34:55;8.10;99.90
4399;DHT22;2213;49.720;7.296;2024-02-28T12:37:23;8.20;99.90
4399;DHT22;2213;49.720;7.296;2024-02-28T12:39:51;8.20;99.90
4399;DHT22;2213;49.720;7.296;2024-02-28T12:42:20;8.30;99.90
4399;DHT22;2213;49.720;7.296;2024-02-28T12:44:50;8.40;99.90
4399;DHT22;2213;49.720;7.296;2024-02-28T12:47:18;8.50;99.90
4399;DHT22;2213;49.720;7.296;2024-02-28T12:49:47;8.40;99.90
4399;DHT22;2213;49.720;7.296;2024-02-28T12:52:15;8.50;99.90
4399;DHT22;2213;49.720;7.296;2024-02-28T12:54:44;8.60;99.90
4399;DHT22;2213;49.720;7.296;2024-02-28T12:57:12;8.60;99.90
4399;DHT22;2213;49.720;7.296;2024-02-28T12:59:43;8.60;99.90
4399;DHT22;2213;49.720;7.296;2024-02-28T13:02:18;8.80;99.90
4399;DHT22;2213;49.720;7.296;2024-02-28T13:04:47;8.90;99.90
4399;DHT22;2213;49.720;7.296;2024-02-28T13:07:16;8.90;99.90
4399;DHT22;2213;49.720;7.296;2024-02-28T13:09:46;8.90;99.90
4399;DHT22;2213;49.720;7.296;2024-02-28T13:12:16;8.90;99.90
4399;DHT22;2213;49.720;7.296;2024-02-28T13:14:47;9.00;99.90
4399;DHT22;2213;49.720;7.296;2024-02-28T13:17:15;9.10;99.90
4399;DHT22;2213;49.720;7.296;2024-02-28T13:19:46;9.10;99.90
4399;DHT22;2213;49.720;7.296;2024-02-28T13:22:14;9.10;99.90
4399;DHT22;2213;49.720;7.296;2024-02-28T13:24:43;9.20;99.90
4399;DHT22;2213;49.720;7.296;2024-02-28T13:27:11;9.20;99.90
4399;DHT22;2213;49.720;7.296;2024-02-28T13:29:40;9.30;99.90
4399;DHT22;2213;49.720;7.296;2024-02-28T13:32:08;9.40;99.90
4399;DHT22;2213;49.720;7.296;2024-02-28T13:34:37;9.50;99.90
4399;DHT22;2213;49.720;7.296;2024-02-28T13:37:07;9.70;99.90
4399;DHT22;2213;49.720;7.296;2024-02-28T13:39:35;9.70;99.90
4399;DHT22;2213;49.720;7.296;2024-02-28T13:42:04;9.80;99.90
4399;DHT22;2213;49.720;7.296;2024-02-28T13:44:34;9.70;99.90
4399;DHT22;2213;49.720;7.296;2024-02-28T13:47:03;9.70;99.90
4399;DHT22;2213;49.720;7.296;2024-02-28T13:49:32;9.70;99.90
4399;DHT22;2213;49.720;7.296;2024-02-28T13:52:01;9.80;99.90
4399;DHT22;2213;49.720;7.296;2024-02-28T13:54:31;9.80;99.90
4399;DHT22;2213;49.720;7.296;2024-02-28T13:56:59;9.90;99.90
4399;DHT22;2213;49.720;7.296;2024-02-28T13:59:28;9.90;99.90
4399;DHT22;2213;49.720;7.296;2024-02-28T14:01:57;10.00;99.90
4399;DHT22;2213;49.720;7.296;2024-02-28T14:04:27;10.10;99.90
4399;DHT22;2213;49.720;7.296;2024-02-28T14:06:55;10.20;99.90
4399;DHT22;2213;49.720;7.296;2024-02-28T14:09:24;10.20;99.90
4399;DHT22;2213;49.720;7.296;2024-02-28T14:11:54;10.20;99.90
4399;DHT22;2213;49.720;7.296;2024-02-28T14:14:23;10.20;99.90
4399;DHT22;2213;49.720;7.296;2024-02-28T14:16:51;10.20;99.90
4399;DHT22;2213;49.720;7.296;2024-02-28T14:19:20;10.20;99.90
4399;DHT22;2213;49.720;7.296;2024-02-28T14:21:48;10.20;99.90
4399;DHT22;2213;49.720;7.296;2024-02-28T14:24:17;10.20;99.90
4399;DHT22;2213;49.720;7.296;2024-02-28T14:26:46;10.40;99.90
4399;DHT22;2213;49.720;7.296;2024-02-28T14:29:16;10.70;99.90
4399;DHT22;2213;49.720;7.296;2024-02-28T14:31:45;10.70;99.90
4399;DHT22;2213;49.720;7.296;2024-02-28T14:34:14;10.80;99.90
4399;DHT22;2213;49.720;7.296;2024-02-28T14:36:42;11.00;99.90
4399;DHT22;2213;49.720;7.296;2024-02-28T14:39:11;11.10;99.90
4399;DHT22;2213;49.720;7.296;2024-02-28T14:41:43;11.10;99.90
4399;DHT22;2213;49.720;7.296;2024-02-28T14:44:12;11.00;99.90
4399;DHT22;2213;49.720;7.296;2024-02-28T14:46:43;10.90;99.90
4399;DHT22;2213;49.720;7.296;2024-02-28T14:49:14;11.00;99.90
4399;DHT22;2213;49.720;7.296;2024-02-28T14:51:43;11.00;99.90
4399;DHT22;2213;49.720;7.296;2024-02-28T14:54:15;11.00;99.90
4399;DHT22;2213;49.720;7.296;2024-02-28T14:56:45;10.90;99.90
4399;DHT22;2213;49.720;7.296;2024-02-28T14:59:14;10.80;99.90
4399;DHT22;2213;49.720;7.296;2024-02-28T15:01:44;10.80;99.90
4399;DHT22;2213;49.720;7.296;2024-02-28T15:04:13;10.70;99.90
4399;DHT22;2213;49.720;7.296;2024-02-28T15:06:42;10.70;99.90
4399;DHT22;2213;49.720;7.296;2024-02-28T15:09:11;10.70;99.90
4399;DHT22;2213;49.720;7.296;2024-02-28T15:11:39;10.70;99.90
4399;DHT22;2213;49.720;7.296;2024-02-28T15:14:08;10.80;99.90
4399;DHT22;2213;49.720;7.296;2024-02-28T15:16:36;10.70;99.90
4399;DHT22;2213;49.720;7.296;2024-02-28T15:19:06;10.60;99.90
4399;DHT22;2213;49.720;7.296;2024-02-28T15:21:34;10.60;99.90
4399;DHT22;2213;49.720;7.296;2024-02-28T15:24:03;10.70;99.90
4399;DHT22;2213;49.720;7.296;2024-02-28T15:26:32;10.70;99.90
4399;DHT22;2213;49.720;7.296;2024-02-28T15:29:12;10.80;99.90
4399;DHT22;2213;49.720;7.296;2024-02-28T15:31:41;10.70;99.90
4399;DHT22;2213;49.720;7.296;2024-02-28T15:34:10;10.80;99.90
4399;DHT22;2213;49.720;7.296;2024-02-28T15:36:39;10.70;99.90
4399;DHT22;2213;49.720;7.296;2024-02-28T15:39:07;10.50;99.90
4399;DHT22;2213;49.720;7.296;2024-02-28T15:41:36;10.40;99.90
4399;DHT22;2213;49.720;7.296;2024-02-28T15:44:07;10.50;99.90
4399;DHT22;2213;49.720;7.296;2024-02-28T15:46:36;10.50;99.90
4399;DHT22;2213;49.720;7.296;2024-02-28T15:49:05;10.60;99.90
4399;DHT22;2213;49.720;7.296;2024-02-28T15:51:37;10.50;99.90
4399;DHT22;2213;49.720;7.296;2024-02-28T15:54:05;10.50;99.90
4399;DHT22;2213;49.720;7.296;2024-02-28T15:56:34;10.50;99.90
4399;DHT22;2213;49.720;7.296;2024-02-28T15:59:02;10.30;99.90
4399;DHT22;2213;49.720;7.296;2024-02-28T16:01:32;10.30;99.90
4399;DHT22;2213;49.720;7.296;2024-02-28T16:04:00;10.30;99.90
4399;DHT22;2213;49.720;7.296;2024-02-28T16:06:29;10.40;99.90
4399;DHT22;2213;49.720;7.296;2024-02-28T16:09:07;10.40;99.90
4399;DHT22;2213;49.720;7.296;2024-02-28T16:11:37;10.30;99.90
4399;DHT22;2213;49.720;7.296;2024-02-28T16:14:06;10.30;99.90
4399;DHT22;2213;49.720;7.296;2024-02-28T16:16:34;10.20;99.90
4399;DHT22;2213;49.720;7.296;2024-02-28T16:19:02;10.20;99.90
4399;DHT22;2213;49.720;7.296;2024-02-28T16:21:41;10.10;99.90
4399;DHT22;2213;49.720;7.296;2024-02-28T16:24:14;10.20;99.90
4399;DHT22;2213;49.720;7.296;2024-02-28T16:26:43;10.10;99.90